createdAt,value
2023-05-24T00:00:35.982Z,79.59
2023-05-24T00:03:04.776Z,80.20
2023-05-24T00:05:32.860Z,79.76
2023-05-24T00:08:02.063Z,79.36
2023-05-24T00:10:29.863Z,80.19
2023-05-24T00:12:57.673Z,80.65
2023-05-24T00:15:25.629Z,80.25
2023-05-24T00:17:53.566Z,79.35
2023-05-24T00:20:21.586Z,78.12
2023-05-24T00:22:49.598Z,80.15
2023-05-24T00:25:19.089Z,79.90
2023-05-24T00:27:46.912Z,81.63
2023-05-24T00:30:14.847Z,81.36
2023-05-24T00:32:42.691Z,81.26
2023-05-24T00:35:10.789Z,82.45
2023-05-24T00:37:40.265Z,82.79
2023-05-24T00:40:10.056Z,82.59
2023-05-24T00:42:39.319Z,81.56
2023-05-24T00:45:08.287Z,82.54
2023-05-24T00:47:37.222Z,83.65
2023-05-24T00:50:05.737Z,82.94
2023-05-24T00:52:34.579Z,83.15
2023-05-24T00:55:02.378Z,84.10
2023-05-24T00:57:30.294Z,83.78
2023-05-24T01:00:00.737Z,83.85
2023-05-24T01:02:28.807Z,84.15
2023-05-24T01:04:57.961Z,84.78
2023-05-24T01:07:33.776Z,83.13
2023-05-24T01:10:10.872Z,84.61
2023-05-24T01:12:52.858Z,84.62
2023-05-24T01:15:26.571Z,85.46
2023-05-24T01:18:05.567Z,84.89
2023-05-24T01:20:38.537Z,84.78
2023-05-24T01:23:19.713Z,85.71
2023-05-24T01:26:11.854Z,86.08
2023-05-24T01:28:43.343Z,87.02
2023-05-24T01:31:12.990Z,85.48
2023-05-24T01:33:43.048Z,86.15
2023-05-24T01:36:11.113Z,87.02
2023-05-24T01:38:41.244Z,86.81
2023-05-24T01:41:22.484Z,85.73
2023-05-24T01:44:01.677Z,86.75
2023-05-24T01:46:37.250Z,86.88
2023-05-24T01:49:17.822Z,86.03
2023-05-24T01:51:50.985Z,85.64
2023-05-24T01:54:22.330Z,86.10
2023-05-24T01:56:50.421Z,87.08
2023-05-24T01:59:21.457Z,86.17
2023-05-24T02:01:49.841Z,87.29
2023-05-24T02:04:17.726Z,86.51
2023-05-24T02:06:46.090Z,85.82
2023-05-24T02:09:13.967Z,87.38
2023-05-24T02:11:41.855Z,86.88
2023-05-24T02:14:09.748Z,86.90
2023-05-24T02:16:42.697Z,87.15
2023-05-24T02:19:10.783Z,86.05
2023-05-24T02:21:38.551Z,86.14
2023-05-24T02:24:07.732Z,86.94
2023-05-24T02:26:35.753Z,87.74
2023-05-24T02:29:03.535Z,87.42
2023-05-24T02:31:31.594Z,87.97
2023-05-24T02:34:00.999Z,87.12
2023-05-24T02:36:29.033Z,87.54
2023-05-24T02:38:58.023Z,89.30
2023-05-24T02:41:26.584Z,89.67
2023-05-24T02:43:54.414Z,89.84
2023-05-24T02:46:22.673Z,88.80
2023-05-24T02:48:50.703Z,88.38
2023-05-24T02:51:20.044Z,89.25
2023-05-24T02:53:48.209Z,88.02
2023-05-24T02:56:17.145Z,89.94
2023-05-24T02:58:45.087Z,89.50
2023-05-24T03:01:13.610Z,88.49
2023-05-24T03:03:42.235Z,89.35
2023-05-24T03:06:13.984Z,89.24
2023-05-24T03:08:43.493Z,88.46
2023-05-24T03:11:11.442Z,89.20
2023-05-24T03:13:39.265Z,89.70
2023-05-24T03:16:07.883Z,90.07
2023-05-24T03:18:36.091Z,89.27
2023-05-24T03:21:04.147Z,90.38
2023-05-24T03:23:32.151Z,90.71
2023-05-24T03:26:01.630Z,90.73
2023-05-24T03:28:30.161Z,91.68
2023-05-24T03:30:59.004Z,91.76
2023-05-24T03:33:27.360Z,92.28
2023-05-24T03:35:55.259Z,92.12
2023-05-24T03:38:24.614Z,92.34
2023-05-24T03:40:52.789Z,92.47
2023-05-24T03:43:22.048Z,91.61
2023-05-24T03:45:58.433Z,94.11
2023-05-24T03:48:26.234Z,92.38
2023-05-24T03:50:54.321Z,93.34
2023-05-24T03:53:23.335Z,93.59
2023-05-24T03:55:51.694Z,93.16
2023-05-24T03:58:19.647Z,92.66
2023-05-24T04:00:48.872Z,93.44
2023-05-24T04:03:17.173Z,93.43
2023-05-24T04:05:45.423Z,94.27
2023-05-24T04:08:15.001Z,93.72
2023-05-24T04:10:43.241Z,94.04
2023-05-24T04:13:13.951Z,95.34
2023-05-24T04:15:41.914Z,94.91
2023-05-24T04:18:12.953Z,96.75
2023-05-24T04:20:41.684Z,92.81
2023-05-24T04:23:10.703Z,94.69
2023-05-24T04:25:38.499Z,95.89
2023-05-24T04:28:07.174Z,96.45
2023-05-24T04:30:36.758Z,95.00
2023-05-24T04:33:04.814Z,93.94
2023-05-24T04:35:35.511Z,93.61
2023-05-24T04:38:03.815Z,93.54
2023-05-24T04:40:31.762Z,93.96
2023-05-24T04:43:01.243Z,93.48
2023-05-24T04:45:30.727Z,93.06
2023-05-24T04:47:58.944Z,92.68
2023-05-24T04:50:44.962Z,93.19
2023-05-24T04:53:17.697Z,92.10
2023-05-24T04:55:50.061Z,92.14
2023-05-24T04:58:18.442Z,92.11
2023-05-24T05:00:48.624Z,92.91
2023-05-24T05:03:16.526Z,93.93
2023-05-24T05:05:45.214Z,93.09
2023-05-24T05:08:15.351Z,93.40
2023-05-24T05:10:43.484Z,92.92
2023-05-24T05:13:11.827Z,92.63
2023-05-24T05:15:41.563Z,92.18
2023-05-24T05:18:12.489Z,93.40
2023-05-24T05:20:40.852Z,93.55
2023-05-24T05:23:09.018Z,92.49
2023-05-24T05:25:38.209Z,91.94
2023-05-24T05:28:06.280Z,92.93
2023-05-24T05:30:34.193Z,93.61
2023-05-24T05:33:02.136Z,94.01
2023-05-24T05:35:30.125Z,92.67
2023-05-24T05:37:57.931Z,92.83
2023-05-24T05:40:25.829Z,92.67
2023-05-24T05:42:55.068Z,94.77
2023-05-24T05:45:22.879Z,93.72
2023-05-24T05:47:51.393Z,92.72
2023-05-24T05:50:19.280Z,92.41
2023-05-24T05:52:47.058Z,91.84
2023-05-24T05:55:14.937Z,94.85
2023-05-24T05:57:43.131Z,94.76
2023-05-24T06:00:13.640Z,93.17
2023-05-24T06:02:41.812Z,92.96
2023-05-24T06:05:10.499Z,93.21
2023-05-24T06:07:38.788Z,93.51
2023-05-24T06:10:07.509Z,93.47
2023-05-24T06:12:35.560Z,93.99
2023-05-24T06:15:05.324Z,93.82
2023-05-24T06:17:34.542Z,94.06
2023-05-24T06:20:09.606Z,94.58
2023-05-24T06:22:38.514Z,93.93
2023-05-24T06:25:07.288Z,95.41
2023-05-24T06:27:35.213Z,93.04
2023-05-24T06:30:03.764Z,93.14
2023-05-24T06:32:31.609Z,93.45
2023-05-24T06:35:00.806Z,92.40
2023-05-24T06:37:31.143Z,95.58
2023-05-24T06:39:58.937Z,96.75
2023-05-24T06:42:26.781Z,98.50
2023-05-24T06:44:54.683Z,96.07
2023-05-24T06:47:23.117Z,97.18
2023-05-24T06:49:52.404Z,94.11
2023-05-24T06:52:21.822Z,94.21
2023-05-24T06:54:50.395Z,93.92
2023-05-24T06:57:18.182Z,91.30
2023-05-24T06:59:46.412Z,92.39
2023-05-24T07:02:14.468Z,93.66
2023-05-24T07:04:42.425Z,92.33
2023-05-24T07:07:13.191Z,93.86
2023-05-24T07:09:44.366Z,97.15
2023-05-24T07:12:12.189Z,92.66
2023-05-24T07:14:39.985Z,90.17
2023-05-24T07:17:07.888Z,90.47
2023-05-24T07:19:36.161Z,88.61
2023-05-24T07:22:04.156Z,91.92
2023-05-24T07:24:32.068Z,89.62
2023-05-24T07:27:01.302Z,88.13
2023-05-24T07:29:29.044Z,88.33
2023-05-24T07:31:58.205Z,87.89
2023-05-24T07:34:28.009Z,83.73
2023-05-24T07:36:55.823Z,87.36
2023-05-24T07:39:25.359Z,86.54
2023-05-24T07:41:53.435Z,84.61
2023-05-24T07:44:23.884Z,85.95
2023-05-24T07:46:51.765Z,85.18
2023-05-24T07:49:19.743Z,86.76
2023-05-24T07:51:47.859Z,86.62
2023-05-24T07:54:15.888Z,85.34
2023-05-24T07:56:44.465Z,85.68
2023-05-24T07:59:12.296Z,84.77
2023-05-24T08:01:41.454Z,82.97
2023-05-24T08:04:09.880Z,85.17
2023-05-24T08:06:38.043Z,83.98
2023-05-24T08:09:08.374Z,80.81
2023-05-24T08:11:36.247Z,77.40
2023-05-24T08:14:04.647Z,77.90
2023-05-24T08:16:32.898Z,78.13
2023-05-24T08:19:02.086Z,75.85
2023-05-24T08:21:30.236Z,73.52
2023-05-24T08:23:58.042Z,74.63
2023-05-24T08:26:26.116Z,75.27
2023-05-24T08:28:53.859Z,75.91
2023-05-24T08:31:22.387Z,74.61
2023-05-24T08:33:51.379Z,73.85
2023-05-24T08:36:20.534Z,73.87
2023-05-24T08:38:48.446Z,71.39
2023-05-24T08:41:16.224Z,73.13
2023-05-24T08:43:44.392Z,74.14
2023-05-24T08:46:13.570Z,74.04
2023-05-24T08:48:47.120Z,70.62
2023-05-24T08:51:16.157Z,72.29
2023-05-24T08:53:48.723Z,71.13
2023-05-24T08:56:18.364Z,72.16
2023-05-24T08:58:47.607Z,73.21
2023-05-24T09:01:17.810Z,72.67
2023-05-24T09:03:47.300Z,70.63
2023-05-24T09:06:18.305Z,71.37
2023-05-24T09:08:50.226Z,70.89
2023-05-24T09:11:18.643Z,72.37
2023-05-24T09:13:46.639Z,72.37
2023-05-24T09:16:15.474Z,72.93
2023-05-24T09:18:43.743Z,72.41
2023-05-24T09:21:12.101Z,73.62
2023-05-24T09:23:41.772Z,71.42
2023-05-24T09:26:11.878Z,71.20
2023-05-24T09:28:41.746Z,70.63
2023-05-24T09:31:09.588Z,70.21
2023-05-24T09:33:37.560Z,71.13
2023-05-24T09:36:07.206Z,71.24
2023-05-24T09:38:36.434Z,72.76
2023-05-24T09:41:06.796Z,72.48
2023-05-24T09:43:47.849Z,73.66
2023-05-24T09:46:18.663Z,71.89
2023-05-24T09:48:57.504Z,71.41
2023-05-24T09:51:25.642Z,71.34
2023-05-24T09:53:58.365Z,70.61
2023-05-24T09:56:26.298Z,69.98
2023-05-24T09:58:57.006Z,71.41
2023-05-24T10:01:26.761Z,69.92
2023-05-24T10:03:55.419Z,69.16
2023-05-24T10:06:24.026Z,67.15
2023-05-24T10:08:54.317Z,66.29
2023-05-24T10:11:22.494Z,67.72
2023-05-24T10:13:51.095Z,70.76
2023-05-24T10:16:20.345Z,66.88
2023-05-24T10:18:48.134Z,70.12
2023-05-24T10:21:17.035Z,68.16
2023-05-24T10:23:45.660Z,66.77
2023-05-24T10:26:15.877Z,66.50
2023-05-24T10:28:47.336Z,65.30
2023-05-24T10:31:19.242Z,65.95
2023-05-24T10:33:51.739Z,64.52
2023-05-24T10:36:20.037Z,64.13
2023-05-24T10:38:48.421Z,65.56
2023-05-24T10:41:16.247Z,65.86
2023-05-24T10:44:00.759Z,64.82
2023-05-24T10:46:35.533Z,62.43
2023-05-24T10:49:07.680Z,61.47
2023-05-24T10:51:38.407Z,62.79
2023-05-24T10:54:17.707Z,60.76
2023-05-24T10:56:47.970Z,60.95
2023-05-24T10:59:29.138Z,60.13
2023-05-24T11:01:58.608Z,60.23
2023-05-24T11:04:36.855Z,62.39
2023-05-24T11:07:06.300Z,61.54
2023-05-24T11:09:34.959Z,62.38
2023-05-24T11:12:07.420Z,63.66
2023-05-24T11:14:39.461Z,61.65
2023-05-24T11:17:08.269Z,61.18
2023-05-24T11:19:39.156Z,61.68
2023-05-24T11:22:09.421Z,62.34
2023-05-24T11:24:38.353Z,62.82
2023-05-24T11:27:07.176Z,64.50
2023-05-24T11:29:41.523Z,64.11
2023-05-24T11:32:10.005Z,63.36
2023-05-24T11:34:40.062Z,64.39
2023-05-24T11:37:08.207Z,65.11
2023-05-24T11:39:38.291Z,65.26
2023-05-24T11:42:07.485Z,68.27
2023-05-24T11:44:38.132Z,66.41
2023-05-24T11:47:07.922Z,67.50
2023-05-24T11:49:35.838Z,67.64
2023-05-24T11:52:05.319Z,67.13
2023-05-24T11:54:34.846Z,67.48
2023-05-24T11:57:03.538Z,66.53
2023-05-24T11:59:31.953Z,65.08
2023-05-24T12:02:01.525Z,64.84
2023-05-24T12:04:30.716Z,64.31
2023-05-24T12:06:58.927Z,63.72
2023-05-24T12:09:28.655Z,62.84
2023-05-24T12:11:57.733Z,65.28
2023-05-24T12:14:28.526Z,63.44
2023-05-24T12:16:57.444Z,62.90
2023-05-24T12:21:58.629Z,62.41
2023-05-24T12:24:29.006Z,61.71
2023-05-24T12:27:00.353Z,60.51
2023-05-24T12:29:28.503Z,61.68
2023-05-24T12:31:56.413Z,61.53
2023-05-24T12:34:25.543Z,60.24
2023-05-24T12:36:54.674Z,56.54
2023-05-24T12:39:24.184Z,55.51
2023-05-24T12:41:56.604Z,54.90
2023-05-24T12:44:26.307Z,53.72
2023-05-24T12:46:54.589Z,53.79
2023-05-24T12:49:23.125Z,54.15
2023-05-24T12:51:51.537Z,53.52
2023-05-24T12:54:20.741Z,56.20
2023-05-24T12:56:48.897Z,56.40
2023-05-24T12:59:18.227Z,55.85
2023-05-24T13:01:50.549Z,55.16
2023-05-24T13:04:19.019Z,54.54
2023-05-24T13:06:48.067Z,53.86
2023-05-24T13:09:18.156Z,54.88
2023-05-24T13:11:46.621Z,55.19
2023-05-24T13:14:15.521Z,56.07
2023-05-24T13:16:45.267Z,57.72
2023-05-24T13:19:13.310Z,57.50
2023-05-24T13:21:41.679Z,56.26
2023-05-24T13:24:09.955Z,56.17
2023-05-24T13:26:38.992Z,56.00
2023-05-24T13:29:32.150Z,57.49
2023-05-24T13:31:57.511Z,57.05
2023-05-24T13:34:25.934Z,56.20
2023-05-24T13:36:54.464Z,54.56
2023-05-24T13:39:23.828Z,54.16
2023-05-24T13:41:51.717Z,54.63
2023-05-24T13:44:19.877Z,53.45
2023-05-24T13:46:48.417Z,54.12
2023-05-24T13:49:17.791Z,55.06
2023-05-24T13:51:45.629Z,54.90
2023-05-24T13:54:13.693Z,56.43
2023-05-24T13:56:44.174Z,56.14
2023-05-24T13:59:12.993Z,58.00
2023-05-24T14:01:45.673Z,59.26
2023-05-24T14:04:13.526Z,57.51
2023-05-24T14:06:42.796Z,57.39
2023-05-24T14:09:11.069Z,57.58
2023-05-24T14:11:39.076Z,58.09
2023-05-24T14:14:57.653Z,57.63
2023-05-24T14:16:55.312Z,58.54
2023-05-24T14:19:23.331Z,57.54
2023-05-24T14:21:52.686Z,58.66
2023-05-24T14:24:20.990Z,57.24
2023-05-24T14:26:48.998Z,56.83
2023-05-24T14:29:16.874Z,55.76
2023-05-24T14:31:44.763Z,54.94
2023-05-24T14:34:12.757Z,56.65
2023-05-24T14:36:41.700Z,55.94
2023-05-24T14:39:11.156Z,55.19
2023-05-24T14:41:38.930Z,54.72
2023-05-24T14:44:06.790Z,53.91
2023-05-24T14:46:34.866Z,53.16
2023-05-24T14:49:03.548Z,53.47
2023-05-24T14:51:31.456Z,54.72
2023-05-24T14:53:59.403Z,56.15
2023-05-24T14:56:30.857Z,54.16
2023-05-24T14:58:59.357Z,54.03
2023-05-24T15:01:27.223Z,52.83
2023-05-24T15:03:55.157Z,51.99
2023-05-24T15:06:23.204Z,54.27
2023-05-24T15:08:52.128Z,54.40
2023-05-24T15:11:19.927Z,55.62
2023-05-24T15:13:49.033Z,54.43
2023-05-24T15:16:16.964Z,55.72
2023-05-24T15:18:44.747Z,54.88
2023-05-24T15:21:12.647Z,53.95
2023-05-24T15:23:40.432Z,53.75
2023-05-24T15:26:08.192Z,53.03
2023-05-24T15:28:36.093Z,54.26
2023-05-24T15:31:05.391Z,54.43
2023-05-24T15:33:33.673Z,54.72
2023-05-24T15:36:01.418Z,53.29
2023-05-24T15:38:29.169Z,53.29
2023-05-24T15:40:56.958Z,53.68
2023-05-24T15:43:24.845Z,54.68
2023-05-24T15:45:53.554Z,53.37
2023-05-24T15:48:22.843Z,53.61
2023-05-24T15:51:11.580Z,54.67
2023-05-24T15:53:38.423Z,54.51
2023-05-24T15:56:06.852Z,54.99
2023-05-24T15:58:34.743Z,55.80
2023-05-24T16:01:02.653Z,56.12
2023-05-24T16:03:31.933Z,56.70
2023-05-24T16:05:59.826Z,56.91
2023-05-24T16:08:29.164Z,56.79
2023-05-24T16:10:57.047Z,56.80
2023-05-24T16:13:24.846Z,57.34
2023-05-24T16:15:52.651Z,57.23
2023-05-24T16:18:22.461Z,57.35
2023-05-24T16:20:52.557Z,57.65
2023-05-24T16:23:22.860Z,57.51
2023-05-24T16:25:51.325Z,57.91
2023-05-24T16:28:23.655Z,57.82
2023-05-24T16:30:55.530Z,57.75
2023-05-24T16:33:23.361Z,59.03
2023-05-24T16:35:56.118Z,59.40
2023-05-24T16:38:24.499Z,57.62
2023-05-24T16:40:52.723Z,58.92
2023-05-24T16:43:21.520Z,59.19
2023-05-24T16:45:49.414Z,59.74
2023-05-24T16:48:18.270Z,59.88
2023-05-24T16:50:46.250Z,59.93
2023-05-24T16:53:15.377Z,59.33
2023-05-24T16:55:43.153Z,60.32
2023-05-24T16:58:13.717Z,60.92
2023-05-24T17:00:41.885Z,60.41
2023-05-24T17:03:10.245Z,59.95
2023-05-24T17:05:39.334Z,59.97
2023-05-24T17:08:08.412Z,60.52
2023-05-24T17:10:37.799Z,60.17
2023-05-24T17:13:05.549Z,59.84
2023-05-24T17:15:33.397Z,60.54
2023-05-24T17:18:01.272Z,60.79
2023-05-24T17:20:29.259Z,60.21
2023-05-24T17:22:57.103Z,60.24
2023-05-24T17:25:24.951Z,59.91
2023-05-24T17:27:54.160Z,60.75
2023-05-24T17:30:22.080Z,61.93
2023-05-24T17:32:49.977Z,62.49
2023-05-24T17:35:17.850Z,61.41
2023-05-24T17:37:45.680Z,63.03
2023-05-24T17:40:13.769Z,63.39
2023-05-24T17:42:43.154Z,64.31
2023-05-24T17:45:13.049Z,65.01
2023-05-24T17:47:40.861Z,64.52
2023-05-24T17:50:10.502Z,65.03
2023-05-24T17:52:38.333Z,65.66
2023-05-24T17:55:07.338Z,68.17
2023-05-24T17:57:35.085Z,68.27
2023-05-24T18:00:02.888Z,66.98
2023-05-24T18:02:32.156Z,66.81
2023-05-24T18:05:00.236Z,64.48
2023-05-24T18:07:30.090Z,63.56
2023-05-24T18:10:00.206Z,65.20
2023-05-24T18:12:28.556Z,65.21
2023-05-24T18:14:56.429Z,64.76
2023-05-24T18:17:24.299Z,65.53
2023-05-24T18:19:53.536Z,66.97
2023-05-24T18:22:21.425Z,65.93
2023-05-24T18:24:49.147Z,64.21
2023-05-24T18:27:16.953Z,65.73
2023-05-24T18:29:44.765Z,67.78
2023-05-24T18:32:12.643Z,65.70
2023-05-24T18:34:40.520Z,67.46
2023-05-24T18:37:09.715Z,67.28
2023-05-24T18:39:37.536Z,67.89
2023-05-24T18:42:05.957Z,67.34
2023-05-24T18:44:37.125Z,68.80
2023-05-24T18:47:05.554Z,70.88
2023-05-24T18:49:34.113Z,70.52
2023-05-24T18:52:03.817Z,69.12
2023-05-24T18:54:33.027Z,70.84
2023-05-24T18:57:03.034Z,71.56
2023-05-24T18:59:31.711Z,70.96
2023-05-24T19:02:00.932Z,70.50
2023-05-24T19:04:29.633Z,72.70
2023-05-24T19:06:57.903Z,72.56
2023-05-24T19:09:25.925Z,72.76
2023-05-24T19:11:58.200Z,71.70
2023-05-24T19:14:26.133Z,72.17
2023-05-24T19:16:53.983Z,72.23
2023-05-24T19:19:21.881Z,73.11
2023-05-24T19:21:49.658Z,73.51
2023-05-24T19:24:17.456Z,74.01
2023-05-24T19:26:45.268Z,73.28
2023-05-24T19:29:14.450Z,73.45
2023-05-24T19:31:42.361Z,73.57
2023-05-24T19:34:10.364Z,73.47
2023-05-24T19:36:38.459Z,74.45
2023-05-24T19:39:06.946Z,75.82
2023-05-24T19:41:34.757Z,75.02
2023-05-24T19:44:02.710Z,74.25
2023-05-24T19:46:31.897Z,75.22
2023-05-24T19:48:59.878Z,73.89
2023-05-24T19:51:28.568Z,76.55
2023-05-24T19:53:56.391Z,76.55
2023-05-24T19:56:24.555Z,77.68
2023-05-24T19:58:52.361Z,77.97
2023-05-24T20:01:20.253Z,78.45
2023-05-24T20:03:49.519Z,77.64
2023-05-24T20:06:17.959Z,78.79
2023-05-24T20:08:46.857Z,80.43
2023-05-24T20:11:14.787Z,80.35
2023-05-24T20:13:42.598Z,81.37
2023-05-24T20:16:10.585Z,79.42
2023-05-24T20:18:38.473Z,82.54
2023-05-24T20:21:07.747Z,83.11
2023-05-24T20:23:35.959Z,82.86
2023-05-24T20:26:04.175Z,80.87
2023-05-24T20:28:32.323Z,80.63
2023-05-24T20:31:00.505Z,81.20
2023-05-24T20:33:28.306Z,82.79
2023-05-24T20:35:56.351Z,82.81
2023-05-24T20:38:25.516Z,84.26
2023-05-24T20:40:53.347Z,82.20
2023-05-24T20:43:21.441Z,84.39
2023-05-24T20:45:49.394Z,84.88
2023-05-24T20:48:17.596Z,86.04
2023-05-24T20:50:45.456Z,86.08
2023-05-24T20:53:13.307Z,86.17
2023-05-24T20:55:42.623Z,87.95
2023-05-24T20:58:10.682Z,87.13
2023-05-24T21:00:39.974Z,88.71
2023-05-24T21:03:08.492Z,87.55
2023-05-24T21:05:38.049Z,87.67
2023-05-24T21:08:05.853Z,88.24
2023-05-24T21:10:34.359Z,89.59
2023-05-24T21:13:03.744Z,89.49
2023-05-24T21:15:31.797Z,89.78
2023-05-24T21:17:59.759Z,90.01
2023-05-24T21:20:27.788Z,91.40
2023-05-24T21:22:55.753Z,90.56
2023-05-24T21:25:23.557Z,88.84
2023-05-24T21:27:51.324Z,89.43
2023-05-24T21:30:20.528Z,90.29
2023-05-24T21:32:48.366Z,90.77
2023-05-24T21:35:16.698Z,91.33
2023-05-24T21:37:44.455Z,91.71
2023-05-24T21:40:13.020Z,91.28
2023-05-24T21:42:40.738Z,93.03
2023-05-24T21:45:09.580Z,93.06
2023-05-24T21:47:38.904Z,92.29
2023-05-24T21:50:07.881Z,92.15
2023-05-24T21:52:35.874Z,92.16
2023-05-24T21:55:03.821Z,92.26
2023-05-24T21:57:31.645Z,92.47
2023-05-24T21:59:59.412Z,94.08
2023-05-24T22:02:27.135Z,95.20
2023-05-24T22:04:56.369Z,94.21
2023-05-24T22:07:24.226Z,94.66
2023-05-24T22:09:52.037Z,94.49
2023-05-24T22:12:20.031Z,95.77
2023-05-24T22:14:48.008Z,95.59
2023-05-24T22:17:15.935Z,96.45
2023-05-24T22:19:44.135Z,96.01
2023-05-24T22:22:13.421Z,96.95
2023-05-24T22:24:41.610Z,95.67
2023-05-24T22:27:13.563Z,95.90
2023-05-24T22:29:41.473Z,95.17
2023-05-24T22:32:09.424Z,95.88
2023-05-24T22:34:37.888Z,95.38
2023-05-24T22:37:05.898Z,95.32
2023-05-24T22:39:35.212Z,95.50
2023-05-24T22:42:03.093Z,96.20
2023-05-24T22:44:30.915Z,96.61
2023-05-24T22:46:58.749Z,96.64
2023-05-24T22:49:29.507Z,97.20
2023-05-24T22:51:57.528Z,97.51
2023-05-24T22:54:25.331Z,96.66
2023-05-24T22:56:54.488Z,97.21
2023-05-24T22:59:22.355Z,97.57
2023-05-24T23:01:50.292Z,97.34
2023-05-24T23:04:21.247Z,97.92
2023-05-24T23:06:52.670Z,96.21
2023-05-24T23:09:28.878Z,96.57
2023-05-24T23:11:58.473Z,96.91
2023-05-24T23:14:30.148Z,96.75
2023-05-24T23:17:02.334Z,98.27
2023-05-24T23:19:31.054Z,99.20
2023-05-24T23:21:58.933Z,97.99
2023-05-24T23:24:26.797Z,97.55
2023-05-24T23:26:55.854Z,97.16
2023-05-24T23:29:25.091Z,97.94
2023-05-24T23:31:52.906Z,99.51
2023-05-24T23:34:20.784Z,99.50
2023-05-24T23:36:48.686Z,99.00
2023-05-24T23:39:16.784Z,99.35
2023-05-24T23:41:45.108Z,99.92
2023-05-24T23:44:12.969Z,98.64
2023-05-24T23:46:42.500Z,99.03
2023-05-24T23:49:10.541Z,100.00
2023-05-24T23:51:38.300Z,100.00
2023-05-24T23:54:06.394Z,100.00
2023-05-24T23:56:34.269Z,100.00
2023-05-24T23:59:02.731Z,99.53
